TAFs

KROC
2015/06/19 18:30
TAF KROC 191725Z 1918/2018 35008KT P6SM BKN025
TEMPO 1918/1921 SCT025
FM192100 36007KT P6SM FEW250
FM200000 04005KT P6SM FEW200
FM200200 00000KT P6SM FEW250
FM201400 13005KT P6SM FEW250
FM201700 09007KT P6SM SCT045
KBUF
2015/06/19 18:30
TAF KBUF 191725Z 1918/2018 03007KT P6SM BKN025
TEMPO 1918/1921 SCT025
FM192100 03007KT P6SM SCT250
FM200200 07005KT P6SM FEW250
FM201100 11005KT P6SM FEW250
FM201700 21007KT P6SM SCT250
KSYR
2015/06/19 18:45
TAF KSYR 191740Z 1918/2018 33008KT P6SM SCT015 OVC030
FM191900 34010KT P6SM FEW030
FM200000 VRB03KT P6SM SKC
FM201200 12005KT P6SM BKN250
CYYZ
2015/06/19 18:42
TAF
AMD TAF
AMD CYYZ 191740Z 1918/2024 16008KT P6SM SCT030
TEMPO 1918/1919 BKN030
BECMG 1923/2001 07007KT
FM201800 12008KT P6SM FEW030
RMK NXT FCST BY 192100Z
CYTZ
2015/06/19 14:41
TAF CYTZ 191338Z 1914/2014 36010KT P6SM BKN040
TEMPO 1914/1916 BKN015 BKN250
FM191600 06007KT P6SM BKN030
FM192000 14008KT P6SM FEW030
BECMG 2002/2004 07007KT
RMK FCST BASED ON AUTO OBS. NXT FCST BY 192000Z

METARs

KROC
2015/06/19 18:54
KROC 191854Z VRB04KT 10SM BKN029 18/11 A3009 RMK AO2 SLP191 T01830111
KBUF
2015/06/19 18:54
KBUF 191854Z 04008KT 10SM BKN022 OVC030 18/12 A3008 RMK AO2 SLP184 T01830122
KSYR
2015/06/19 18:54
KSYR 191854Z 30009G18KT 10SM SCT025 SCT036 BKN200 21/14 A3005 RMK AO2 SLP169 T02110139
CYYZ
2015/06/19 18:00
CYYZ 191800Z 14009KT 110V190 15SM SCT030 SCT080 BKN210 19/14 A3009 RMK CU3AC1CI2 AC TR SLP189 DENSITY ALT 900FT
CYTZ
2015/06/19 18:00
CYTZ 191800Z AUTO 15010KT 9SM CLR 17/13 A3009 RMK SLP190 DENSITY ALT 300FT